createdAt,value
2024-03-11T00:04:07.994Z,99152.88
2024-03-11T00:09:21.366Z,99153.63
2024-03-11T00:14:27.885Z,99141.84
2024-03-11T00:19:30.056Z,99134.84
2024-03-11T00:24:32.096Z,99132.94
2024-03-11T00:29:34.083Z,99137.38
2024-03-11T00:34:36.453Z,99146.75
2024-03-11T00:39:38.409Z,99140.16
2024-03-11T00:44:40.906Z,99151.94
2024-03-11T00:49:43.337Z,99153.44
2024-03-11T00:54:46.040Z,99151.81
2024-03-11T00:59:48.411Z,99155.19
2024-03-11T01:04:50.473Z,99146.31
2024-03-11T01:09:53.271Z,99145.97
2024-03-11T01:14:56.520Z,99146.81
2024-03-11T01:19:58.990Z,99152.25
2024-03-11T01:25:01.108Z,99162.97
2024-03-11T01:30:03.711Z,99162.38
2024-03-11T01:35:05.782Z,99164.31
2024-03-11T01:40:11.447Z,99166.00
2024-03-11T01:45:14.765Z,99162.00
2024-03-11T01:50:18.468Z,99175.03
2024-03-11T01:55:21.308Z,99173.00
2024-03-11T02:00:24.012Z,99173.97
2024-03-11T02:05:28.319Z,99180.84
2024-03-11T02:10:31.057Z,99171.72
2024-03-11T02:15:33.056Z,99174.03
2024-03-11T02:20:36.911Z,99180.13
2024-03-11T02:25:39.404Z,99173.09
2024-03-11T02:30:41.693Z,99179.59
2024-03-11T02:35:43.870Z,99173.94
2024-03-11T02:40:45.924Z,99176.25
2024-03-11T02:45:47.892Z,99175.13
2024-03-11T02:50:50.347Z,99177.88
2024-03-11T02:55:52.426Z,99174.78
2024-03-11T03:00:54.499Z,99179.88
2024-03-11T03:05:57.124Z,99183.06
2024-03-11T03:11:03.888Z,99184.66
2024-03-11T03:16:06.396Z,99183.59
2024-03-11T03:21:08.418Z,99183.59
2024-03-11T03:26:10.899Z,99179.88
2024-03-11T03:31:13.655Z,99179.44
2024-03-11T03:36:15.747Z,99179.63
2024-03-11T03:41:18.067Z,99181.13
2024-03-11T03:46:20.079Z,99177.31
2024-03-11T03:51:22.016Z,99182.09
2024-03-11T03:56:27.206Z,99182.69
2024-03-11T04:01:29.414Z,99183.38
2024-03-11T04:06:33.817Z,99185.53
2024-03-11T04:11:37.363Z,99182.28
2024-03-11T04:16:39.465Z,99190.34
2024-03-11T04:21:42.141Z,99187.56
2024-03-11T04:26:44.134Z,99183.91
2024-03-11T04:31:46.262Z,99189.22
2024-03-11T04:36:48.765Z,99189.81
2024-03-11T04:41:51.311Z,99195.66
2024-03-11T04:46:56.010Z,99195.81
2024-03-11T04:51:59.363Z,99196.53
2024-03-11T04:57:02.196Z,99197.97
2024-03-11T05:02:05.010Z,99196.50
2024-03-11T05:07:07.216Z,99208.13
2024-03-11T05:12:09.356Z,99209.59
2024-03-11T05:17:12.357Z,99217.13
2024-03-11T05:22:15.010Z,99212.66
2024-03-11T05:27:17.361Z,99225.63
2024-03-11T05:32:19.509Z,99235.31
2024-03-11T05:37:22.315Z,99235.94
2024-03-11T05:42:24.325Z,99238.22
2024-03-11T05:47:27.672Z,99243.19
2024-03-11T05:52:30.501Z,99243.44
2024-03-11T05:57:37.105Z,99249.03
2024-03-11T06:02:40.041Z,99245.84
2024-03-11T06:07:44.129Z,99252.63
2024-03-11T06:12:46.497Z,99260.19
2024-03-11T06:17:49.135Z,99265.28
2024-03-11T06:22:51.257Z,99275.38
2024-03-11T06:27:53.439Z,99271.88
2024-03-11T06:32:55.729Z,99287.97
2024-03-11T06:37:57.935Z,99292.47
2024-03-11T06:43:00.057Z,99290.34
2024-03-11T06:48:02.538Z,99288.84
2024-03-11T06:53:05.927Z,99289.06
2024-03-11T06:58:08.366Z,99291.28
2024-03-11T07:03:10.500Z,99304.97
2024-03-11T07:08:12.522Z,99291.81
2024-03-11T07:13:14.999Z,99294.59
2024-03-11T07:18:20.121Z,99298.50
2024-03-11T07:23:22.319Z,99303.16
2024-03-11T07:28:24.440Z,99303.31
2024-03-11T07:33:26.419Z,99313.59
2024-03-11T07:38:29.161Z,99319.34
2024-03-11T07:43:31.676Z,99318.25
2024-03-11T07:48:34.125Z,99315.59
2024-03-11T07:53:36.477Z,99319.84
2024-03-11T07:58:38.340Z,99326.03
2024-03-11T08:03:40.428Z,99334.94
2024-03-11T08:08:42.680Z,99340.13
2024-03-11T08:13:44.836Z,99348.94
2024-03-11T08:18:46.833Z,99350.13
2024-03-11T08:23:48.778Z,99357.34
2024-03-11T08:28:50.861Z,99351.50
2024-03-11T08:33:53.269Z,99361.97
2024-03-11T08:38:55.300Z,99374.41
2024-03-11T08:43:57.517Z,99373.56
2024-03-11T08:48:59.640Z,99377.81
2024-03-11T08:54:01.814Z,99379.72
2024-03-11T08:59:09.426Z,99385.16
2024-03-11T09:04:12.200Z,99393.13
2024-03-11T09:09:16.037Z,99391.41
2024-03-11T09:14:18.254Z,99402.88
2024-03-11T09:19:22.560Z,99399.38
2024-03-11T09:24:26.482Z,99411.06
2024-03-11T09:29:28.634Z,99420.84
2024-03-11T09:34:30.643Z,99417.97
2024-03-11T09:39:36.070Z,99435.72
2024-03-11T09:44:38.179Z,99441.00
2024-03-11T09:49:40.603Z,99438.47
2024-03-11T09:54:42.741Z,99444.09
2024-03-11T09:59:51.411Z,99447.25
2024-03-11T10:04:55.447Z,99452.81
2024-03-11T10:09:57.866Z,99451.72
2024-03-11T10:15:02.115Z,99458.75
2024-03-11T10:20:15.725Z,99463.41
2024-03-11T10:25:24.939Z,99468.50
2024-03-11T10:30:28.108Z,99476.69
2024-03-11T10:35:41.263Z,99473.28
2024-03-11T10:40:46.833Z,99479.25
2024-03-11T10:45:49.235Z,99475.72
2024-03-11T10:50:57.801Z,99480.19
2024-03-11T10:56:01.608Z,99488.91
2024-03-11T11:01:04.753Z,99499.00
2024-03-11T11:06:16.623Z,99508.53
2024-03-11T11:11:21.353Z,99493.13
2024-03-11T11:16:27.520Z,99497.16
2024-03-11T11:21:31.343Z,99502.81
2024-03-11T11:26:44.123Z,99513.09
2024-03-11T11:32:10.205Z,99518.41
2024-03-11T11:37:36.190Z,99515.84
2024-03-11T11:42:41.112Z,99513.94
2024-03-11T11:47:47.330Z,99528.06
2024-03-11T11:53:05.710Z,99534.34
2024-03-11T11:58:09.962Z,99539.34
2024-03-11T12:03:30.061Z,99553.66
2024-03-11T12:08:35.210Z,99553.56
2024-03-11T12:13:38.690Z,99563.44
2024-03-11T12:18:43.810Z,99560.03
2024-03-11T12:23:47.285Z,99562.78
2024-03-11T12:29:09.381Z,99571.59
2024-03-11T12:34:15.418Z,99574.91
2024-03-11T12:39:28.063Z,99577.88
2024-03-11T12:44:33.313Z,99595.50
2024-03-11T12:49:35.503Z,99595.59
2024-03-11T12:54:40.632Z,99602.28
2024-03-11T12:59:58.990Z,99601.75
2024-03-11T13:05:18.419Z,99609.72
2024-03-11T13:10:21.831Z,99617.69
2024-03-11T13:15:25.233Z,99621.19
2024-03-11T13:20:38.750Z,99629.06
2024-03-11T13:25:43.949Z,99634.38
2024-03-11T13:30:50.717Z,99639.88
2024-03-11T13:35:56.843Z,99646.91
2024-03-11T13:41:00.326Z,99641.38
2024-03-11T13:46:02.733Z,99654.56
2024-03-11T13:51:05.011Z,99663.56
2024-03-11T13:56:08.029Z,99660.03
2024-03-11T14:01:11.776Z,99666.31
2024-03-11T14:06:14.760Z,99671.72
2024-03-11T14:11:19.692Z,99689.53
2024-03-11T14:16:22.145Z,99685.97
2024-03-11T14:21:26.231Z,99689.25
2024-03-11T14:26:28.796Z,99699.31
2024-03-11T14:31:31.478Z,99702.72
2024-03-11T14:36:33.904Z,99707.19
2024-03-11T14:41:36.084Z,99701.13
2024-03-11T14:46:44.519Z,99718.97
2024-03-11T14:51:56.794Z,99721.50
2024-03-11T14:56:59.540Z,99725.09
2024-03-11T15:02:02.814Z,99728.59
2024-03-11T15:07:05.722Z,99736.56
2024-03-11T15:12:09.690Z,99744.16
2024-03-11T15:17:11.856Z,99739.81
2024-03-11T15:22:15.028Z,99744.16
2024-03-11T15:27:17.172Z,99752.78
2024-03-11T15:32:19.666Z,99763.31
2024-03-11T15:37:21.818Z,99760.75
2024-03-11T15:42:23.760Z,99765.66
2024-03-11T15:47:26.606Z,99778.94
2024-03-11T15:52:28.603Z,99774.31
2024-03-11T15:57:30.670Z,99779.63
2024-03-11T16:02:32.813Z,99787.44
2024-03-11T16:07:34.955Z,99793.16
2024-03-11T16:12:37.251Z,99794.09
2024-03-11T16:17:42.099Z,99804.63
2024-03-11T16:22:45.545Z,99805.56
2024-03-11T16:27:48.166Z,99811.63
2024-03-11T16:32:53.866Z,99817.25
2024-03-11T16:37:57.619Z,99830.22
2024-03-11T16:43:12.010Z,99832.66
2024-03-11T16:48:15.225Z,99841.44
2024-03-11T16:53:22.925Z,99845.94
2024-03-11T16:58:25.757Z,99854.97
2024-03-11T17:03:29.981Z,99854.41
2024-03-11T17:08:31.955Z,99864.38
2024-03-11T17:13:35.090Z,99873.09
2024-03-11T17:18:37.225Z,99877.84
2024-03-11T17:23:39.524Z,99882.09
2024-03-11T17:28:41.681Z,99881.44
2024-03-11T17:33:43.786Z,99896.44
2024-03-11T17:38:46.863Z,99898.41
2024-03-11T17:43:50.337Z,99909.59
2024-03-11T17:48:53.076Z,99917.47
2024-03-11T17:53:55.130Z,99923.44
2024-03-11T17:58:57.273Z,99928.09
2024-03-11T18:03:59.308Z,99933.22
2024-03-11T18:09:01.313Z,99938.78
2024-03-11T18:14:03.483Z,99938.91
2024-03-11T18:19:09.218Z,99948.19
2024-03-11T18:24:13.329Z,99947.41
2024-03-11T18:29:15.616Z,99951.88
2024-03-11T18:34:17.566Z,99953.03
2024-03-11T18:39:22.341Z,99954.81
2024-03-11T18:44:26.070Z,99962.44
2024-03-11T18:49:28.136Z,99967.63
2024-03-11T18:54:30.525Z,99965.84
2024-03-11T18:59:33.565Z,99967.63
2024-03-11T19:04:36.527Z,99983.47
2024-03-11T19:09:39.085Z,99988.78
2024-03-11T19:14:41.690Z,99990.59
2024-03-11T19:19:47.995Z,99999.47
2024-03-11T19:24:50.081Z,100005.47
2024-03-11T19:29:52.146Z,100012.59
2024-03-11T19:34:54.308Z,100018.81
2024-03-11T19:40:13.633Z,100027.38
2024-03-11T19:45:32.830Z,100039.03
2024-03-11T19:51:13.377Z,100048.16
2024-03-11T19:56:40.144Z,100060.09
2024-03-11T20:01:51.542Z,100068.91
2024-03-11T20:07:25.507Z,100080.50
2024-03-11T20:13:04.616Z,100082.19
2024-03-11T20:18:39.795Z,100097.28
2024-03-11T20:24:06.554Z,100103.50
2024-03-11T20:29:26.501Z,100103.50
2024-03-11T20:34:28.649Z,100109.50
2024-03-11T20:39:30.649Z,100115.78
2024-03-11T20:44:33.178Z,100130.69
2024-03-11T20:49:35.298Z,100133.28
2024-03-11T20:54:37.725Z,100144.13
2024-03-11T20:59:41.215Z,100156.63
2024-03-11T21:04:43.857Z,100154.28
2024-03-11T21:09:46.092Z,100167.22
2024-03-11T21:14:48.068Z,100181.44
2024-03-11T21:19:53.819Z,100177.84
2024-03-11T21:24:59.198Z,100190.06
2024-03-11T21:30:03.460Z,100193.84
2024-03-11T21:35:05.769Z,100201.81
2024-03-11T21:40:12.776Z,100206.69
2024-03-11T21:45:15.764Z,100211.50
2024-03-11T21:50:18.364Z,100221.06
2024-03-11T21:55:20.452Z,100228.59
2024-03-11T22:00:22.540Z,100226.03
2024-03-11T22:05:24.645Z,100229.78
2024-03-11T22:10:26.655Z,100240.50
2024-03-11T22:15:28.766Z,100234.25
2024-03-11T22:20:30.899Z,100246.34
2024-03-11T22:25:32.879Z,100250.88
2024-03-11T22:30:35.000Z,100255.41
2024-03-11T22:35:36.994Z,100271.09
2024-03-11T22:40:40.843Z,100272.00
2024-03-11T22:45:42.958Z,100279.41
2024-03-11T22:50:45.820Z,100281.28
2024-03-11T22:55:47.907Z,100294.38
2024-03-11T23:00:56.523Z,100290.72
2024-03-11T23:06:16.242Z,100295.50
2024-03-11T23:11:20.522Z,100302.53
2024-03-11T23:16:23.317Z,100310.56
2024-03-11T23:21:26.648Z,100317.50
2024-03-11T23:26:29.016Z,100315.03
2024-03-11T23:31:31.109Z,100317.63
2024-03-11T23:36:33.037Z,100331.66
2024-03-11T23:41:35.338Z,100335.69
2024-03-11T23:46:37.464Z,100343.47
2024-03-11T23:51:40.632Z,100346.06
2024-03-11T23:56:44.654Z,100356.81
